Time;durP1;ratioP1;P1;durP2;ratioP2;P2;SDS_P1;SDS_P2;PMS_P1;PMS_P2;Temp;Humidity;BMP_temperature;BMP_pressure;BME280_temperature;BME280_humidity;BME280_pressure;Samples;Min_cycle;Max_cycle;Signal;HPM_P1;HPM_P2
2023/04/26 00:00:12;;;;;;;10.00;9.70;;;5.50;99.90;;;;;;5052301;28;20231;-82
2023/04/26 00:02:40;;;;;;;9.47;9.17;;;5.50;99.90;;;;;;5051531;28;20235;-82
2023/04/26 00:05:08;;;;;;;10.00;9.70;;;5.50;99.90;;;;;;5051932;28;20240;-81
2023/04/26 00:07:38;;;;;;;10.10;9.80;;;5.50;99.90;;;;;;5050341;28;20231;-82
2023/04/26 00:10:06;;;;;;;10.00;9.70;;;5.40;99.90;;;;;;5050737;28;20235;-81
2023/04/26 00:12:35;;;;;;;10.20;9.90;;;5.40;99.90;;;;;;5050883;28;20235;-81
2023/04/26 00:15:09;;;;;;;10.03;9.73;;;5.30;99.90;;;;;;5050521;28;20302;-82
2023/04/26 00:17:37;;;;;;;10.00;9.70;;;5.30;99.90;;;;;;5050505;28;20269;-81
2023/04/26 00:20:09;;;;;;;9.90;9.60;;;5.30;99.90;;;;;;5049948;28;20295;-82
2023/04/26 00:22:38;;;;;;;9.90;9.60;;;5.30;99.90;;;;;;5049620;28;20234;-82
2023/04/26 00:25:08;;;;;;;9.70;9.40;;;5.30;99.90;;;;;;5045867;28;20235;-82
2023/04/26 00:27:36;;;;;;;9.80;9.50;;;5.30;99.90;;;;;;5044249;28;20231;-82
2023/04/26 00:30:04;;;;;;;9.73;9.43;;;5.30;99.90;;;;;;5043261;28;20216;-82
2023/04/26 00:32:34;;;;;;;9.00;8.80;;;5.30;99.90;;;;;;5042046;28;20266;-82
2023/04/26 00:35:03;;;;;;;9.03;8.83;;;5.30;99.90;;;;;;5040619;28;20289;-82
2023/04/26 00:37:31;;;;;;;9.67;9.37;;;5.30;99.90;;;;;;5054827;28;20223;-82
2023/04/26 00:40:00;;;;;;;9.20;8.90;;;5.30;99.90;;;;;;5063616;28;20290;-81
2023/04/26 00:42:28;;;;;;;9.03;8.83;;;5.30;99.90;;;;;;5059131;28;20316;-82
2023/04/26 00:44:56;;;;;;;9.40;9.10;;;5.30;99.90;;;;;;5045711;28;20228;-82
2023/04/26 00:47:25;;;;;;;9.43;9.13;;;5.30;99.90;;;;;;5050779;28;20231;-82
2023/04/26 00:49:53;;;;;;;9.60;9.30;;;5.30;99.90;;;;;;5062286;28;20241;-82
2023/04/26 00:52:20;;;;;;;9.50;9.20;;;5.30;99.90;;;;;;5061677;28;20219;-82
2023/04/26 00:54:50;;;;;;;9.73;9.43;;;5.20;99.90;;;;;;5061033;28;20211;-82
2023/04/26 00:57:19;;;;;;;9.50;9.20;;;5.30;99.90;;;;;;5037809;28;20242;-82
2023/04/26 00:59:46;;;;;;;9.80;9.50;;;5.30;99.90;;;;;;5026893;28;20327;-82
2023/04/26 01:02:14;;;;;;;9.70;9.40;;;5.30;99.90;;;;;;5027092;28;20320;-82
2023/04/26 01:04:44;;;;;;;9.90;9.60;;;5.20;99.90;;;;;;5021104;28;20244;-82
2023/04/26 01:07:11;;;;;;;9.80;9.50;;;5.20;99.90;;;;;;5021127;28;20239;-82
2023/04/26 01:09:39;;;;;;;9.80;9.50;;;5.20;99.90;;;;;;5020444;28;20235;-82
2023/04/26 01:12:09;;;;;;;9.93;9.63;;;5.20;99.90;;;;;;5021373;28;20255;-82
2023/04/26 01:14:39;;;;;;;10.17;9.87;;;5.20;99.90;;;;;;5021806;28;20236;-82
2023/04/26 01:17:07;;;;;;;10.03;9.73;;;5.00;99.90;;;;;;5021198;28;20232;-81
2023/04/26 01:19:36;;;;;;;10.03;9.73;;;5.00;99.90;;;;;;5019911;28;20323;-82
2023/04/26 01:22:04;;;;;;;9.80;9.50;;;5.00;99.90;;;;;;5022453;28;20251;-82
2023/04/26 01:24:35;;;;;;;10.10;9.80;;;5.00;99.90;;;;;;5021526;28;20220;-82
2023/04/26 01:27:03;;;;;;;9.87;9.57;;;5.00;99.90;;;;;;5023542;28;20315;-82
2023/04/26 01:29:32;;;;;;;9.87;9.57;;;4.90;99.90;;;;;;5021369;28;20304;-82
2023/04/26 01:31:59;;;;;;;9.87;9.57;;;4.80;99.90;;;;;;5021842;28;20323;-82
2023/04/26 01:34:27;;;;;;;10.00;9.70;;;4.60;99.90;;;;;;5021190;28;20244;-82
2023/04/26 01:36:54;;;;;;;9.83;9.53;;;4.50;99.90;;;;;;5020599;28;20287;-82
2023/04/26 01:39:22;;;;;;;9.87;9.57;;;4.40;99.90;;;;;;5020568;28;20319;-82
2023/04/26 01:41:51;;;;;;;9.73;9.43;;;4.40;99.90;;;;;;5020414;28;20232;-82
2023/04/26 01:44:19;;;;;;;9.80;9.50;;;4.40;99.90;;;;;;5020258;28;20233;-82
2023/04/26 01:46:46;;;;;;;10.00;9.70;;;4.50;99.90;;;;;;5020918;28;20251;-82
2023/04/26 01:49:14;;;;;;;9.87;9.57;;;4.50;99.90;;;;;;5021058;28;20930;-82
2023/04/26 01:51:42;;;;;;;10.00;9.70;;;4.40;99.90;;;;;;5022226;28;20232;-82
2023/04/26 01:54:09;;;;;;;9.70;9.40;;;4.40;99.90;;;;;;5030285;28;20239;-82
2023/04/26 01:56:37;;;;;;;9.93;9.63;;;4.50;99.90;;;;;;5025123;28;20283;-82
2023/04/26 01:59:06;;;;;;;10.00;9.70;;;4.60;99.90;;;;;;5022432;28;20331;-82
2023/04/26 02:01:33;;;;;;;9.90;9.60;;;4.60;99.90;;;;;;5023865;28;20288;-81
2023/04/26 02:04:01;;;;;;;10.17;9.87;;;4.60;99.90;;;;;;5022242;28;20283;-81
2023/04/26 02:06:28;;;;;;;10.50;10.20;;;4.60;99.90;;;;;;5023141;28;20330;-81
2023/04/26 02:08:56;;;;;;;9.80;9.50;;;4.60;99.90;;;;;;5023454;28;20323;-82
2023/04/26 02:11:25;;;;;;;10.00;9.70;;;4.60;99.90;;;;;;5022282;28;20232;-82
2023/04/26 02:13:53;;;;;;;10.03;9.73;;;4.50;99.90;;;;;;5022038;28;20323;-82
2023/04/26 02:16:22;;;;;;;10.27;9.97;;;4.50;99.90;;;;;;5021562;28;20232;-82
2023/04/26 02:18:49;;;;;;;10.27;9.97;;;4.50;99.90;;;;;;5022351;28;20338;-82
2023/04/26 02:21:18;;;;;;;10.73;10.43;;;4.50;99.90;;;;;;5022363;28;20255;-82
2023/04/26 02:23:45;;;;;;;11.07;10.77;;;4.60;99.90;;;;;;5021872;28;20228;-82
2023/04/26 02:26:13;;;;;;;10.90;10.60;;;4.50;99.90;;;;;;5029534;28;20291;-79
2023/04/26 02:28:41;;;;;;;11.00;10.70;;;4.40;99.90;;;;;;5024346;28;20242;-79
2023/04/26 02:31:08;;;;;;;11.07;10.77;;;4.30;99.90;;;;;;5022648;28;20219;-82
2023/04/26 02:33:37;;;;;;;11.20;10.90;;;4.20;99.90;;;;;;5021832;28;20224;-82
2023/04/26 02:36:06;;;;;;;11.10;10.80;;;4.10;99.90;;;;;;5022187;28;20228;-82
2023/04/26 02:38:35;;;;;;;11.00;10.70;;;4.10;99.90;;;;;;5021574;28;20343;-82
2023/04/26 02:41:04;;;;;;;11.13;10.83;;;4.00;99.90;;;;;;5023913;28;20234;-80
2023/04/26 02:43:31;;;;;;;10.40;10.10;;;3.90;99.90;;;;;;5021435;28;20284;-81
2023/04/26 02:46:00;;;;;;;10.77;10.47;;;3.90;99.90;;;;;;5023696;28;20315;-80
2023/04/26 02:48:27;;;;;;;10.80;10.50;;;3.80;99.90;;;;;;5021047;28;20328;-80
2023/04/26 02:50:56;;;;;;;10.90;10.60;;;3.80;99.90;;;;;;5020640;28;20232;-80
2023/04/26 02:53:24;;;;;;;10.33;10.03;;;3.80;99.90;;;;;;5020602;28;20224;-80
2023/04/26 02:55:51;;;;;;;10.90;10.60;;;3.70;99.90;;;;;;5028287;28;20242;-80
2023/04/26 02:58:20;;;;;;;10.70;10.40;;;3.70;99.90;;;;;;5034247;28;20260;-80
2023/04/26 03:00:48;;;;;;;10.70;10.40;;;3.60;99.90;;;;;;5027024;28;20275;-80
2023/04/26 03:03:15;;;;;;;10.70;10.40;;;3.50;99.90;;;;;;5021696;28;20232;-80
2023/04/26 03:05:43;;;;;;;10.60;10.30;;;3.50;99.90;;;;;;5021218;28;20319;-81
2023/04/26 03:08:12;;;;;;;10.60;10.30;;;3.40;99.90;;;;;;5022091;28;20315;-80
2023/04/26 03:10:39;;;;;;;10.40;10.10;;;3.30;99.90;;;;;;5021045;28;20323;-80
2023/04/26 03:13:07;;;;;;;10.70;10.40;;;3.30;99.90;;;;;;5021526;28;20228;-80
2023/04/26 03:15:34;;;;;;;10.50;10.20;;;3.30;99.90;;;;;;5021617;28;20242;-80
2023/04/26 03:18:02;;;;;;;10.53;10.23;;;3.30;99.90;;;;;;5021053;28;20299;-80
2023/04/26 03:20:30;;;;;;;10.20;9.90;;;3.20;99.90;;;;;;5027369;28;20212;-80
2023/04/26 03:22:57;;;;;;;10.23;9.93;;;3.20;99.90;;;;;;5024707;28;20280;-80
2023/04/26 03:25:26;;;;;;;10.20;9.90;;;3.20;99.90;;;;;;5023633;28;20296;-80
2023/04/26 03:27:54;;;;;;;10.23;9.93;;;3.20;99.90;;;;;;5021143;28;20320;-80
2023/04/26 03:30:21;;;;;;;10.40;10.10;;;3.20;99.90;;;;;;5020968;28;20606;-80
2023/04/26 03:32:49;;;;;;;10.20;9.90;;;3.10;99.90;;;;;;5022912;28;20232;-80
2023/04/26 03:35:16;;;;;;;10.50;10.20;;;3.10;99.90;;;;;;5023172;28;20232;-80
2023/04/26 03:37:45;;;;;;;10.07;9.77;;;3.10;99.90;;;;;;5023217;28;20242;-80
2023/04/26 03:40:13;;;;;;;10.40;10.10;;;3.10;99.90;;;;;;5020343;28;20731;-80
2023/04/26 03:42:42;;;;;;;11.23;10.93;;;3.10;99.90;;;;;;5020835;28;20234;-80
2023/04/26 03:45:11;;;;;;;10.80;10.50;;;3.10;99.90;;;;;;5022746;28;20315;-82
2023/04/26 03:47:38;;;;;;;11.30;11.00;;;3.10;99.90;;;;;;5024580;28;20267;-80
2023/04/26 03:50:08;;;;;;;11.70;11.30;;;3.10;99.90;;;;;;5025714;28;20239;-80
2023/04/26 03:52:35;;;;;;;11.40;11.10;;;3.00;99.90;;;;;;5030329;28;20246;-80
2023/04/26 03:55:03;;;;;;;11.90;11.50;;;3.00;99.90;;;;;;5022006;28;20275;-80
2023/04/26 03:57:31;;;;;;;11.60;11.20;;;3.00;99.90;;;;;;5021592;28;20232;-80
2023/04/26 03:59:59;;;;;;;11.10;10.80;;;2.90;99.90;;;;;;5020330;28;20310;-80
2023/04/26 04:02:27;;;;;;;10.53;10.23;;;2.90;99.90;;;;;;5021156;28;20252;-80
2023/04/26 04:04:55;;;;;;;10.23;9.93;;;2.90;99.90;;;;;;5021108;28;20271;-81
2023/04/26 04:07:22;;;;;;;11.20;10.90;;;2.90;99.90;;;;;;5020637;28;20299;-81
2023/04/26 04:09:50;;;;;;;11.50;11.13;;;2.90;99.90;;;;;;5018336;28;20263;-81
2023/04/26 04:12:17;;;;;;;11.70;11.30;;;2.80;99.90;;;;;;5020153;28;20225;-81
2023/04/26 04:14:45;;;;;;;12.00;11.60;;;2.80;99.90;;;;;;5019789;28;20291;-81
2023/04/26 04:17:13;;;;;;;11.90;11.50;;;2.80;99.90;;;;;;5020034;28;20311;-81
2023/04/26 04:19:41;;;;;;;11.60;11.20;;;2.80;99.90;;;;;;5019414;28;20247;-81
2023/04/26 04:22:08;;;;;;;11.77;11.37;;;2.80;99.90;;;;;;5020134;28;20236;-81
2023/04/26 04:24:36;;;;;;;11.10;10.80;;;2.80;99.90;;;;;;5020054;28;20224;-81
2023/04/26 04:27:04;;;;;;;10.80;10.50;;;2.70;99.90;;;;;;5019493;28;20236;-81
2023/04/26 04:29:31;;;;;;;11.10;10.80;;;2.70;99.90;;;;;;5018992;28;20327;-80
2023/04/26 04:31:59;;;;;;;10.70;10.40;;;2.70;99.90;;;;;;5019865;28;20252;-80
2023/04/26 04:34:30;;;;;;;11.20;10.90;;;2.70;99.90;;;;;;5022197;28;20240;-80
2023/04/26 04:36:57;;;;;;;10.80;10.50;;;2.70;99.90;;;;;;5020437;28;20331;-81
2023/04/26 04:39:25;;;;;;;10.87;10.57;;;2.80;99.90;;;;;;5019944;28;20225;-82
2023/04/26 04:41:53;;;;;;;11.20;10.90;;;2.80;99.90;;;;;;5019651;28;20266;-82
2023/04/26 04:44:22;;;;;;;11.10;10.80;;;2.80;99.90;;;;;;5019135;28;20228;-81
2023/04/26 04:46:51;;;;;;;10.83;10.53;;;2.90;99.90;;;;;;5019620;28;20694;-80
2023/04/26 04:49:18;;;;;;;10.63;10.33;;;2.90;99.90;;;;;;5019591;28;20344;-81
2023/04/26 04:51:47;;;;;;;10.50;10.20;;;2.90;99.90;;;;;;5019956;28;20264;-81
2023/04/26 04:54:16;;;;;;;10.57;10.27;;;3.00;99.90;;;;;;5020934;28;20240;-80
2023/04/26 04:56:44;;;;;;;10.70;10.40;;;3.00;99.90;;;;;;5019789;28;20258;-80
2023/04/26 04:59:12;;;;;;;10.70;10.40;;;3.00;99.90;;;;;;5018982;28;20236;-81
2023/04/26 05:01:40;;;;;;;10.50;10.20;;;3.10;99.90;;;;;;5018866;28;20232;-81
2023/04/26 05:04:07;;;;;;;10.10;9.80;;;3.10;99.90;;;;;;5019065;28;20236;-81
2023/04/26 05:06:35;;;;;;;10.33;10.03;;;3.20;99.90;;;;;;5020695;28;20323;-81
2023/04/26 05:09:05;;;;;;;10.30;10.00;;;3.20;99.90;;;;;;5019077;28;20242;-81
2023/04/26 05:11:32;;;;;;;10.50;10.20;;;3.30;99.90;;;;;;5027563;28;20235;-80
2023/04/26 05:14:00;;;;;;;10.43;10.13;;;3.40;99.90;;;;;;5026786;28;20247;-80
2023/04/26 05:16:27;;;;;;;10.17;9.87;;;3.50;99.90;;;;;;5022700;28;20319;-80
2023/04/26 05:18:55;;;;;;;10.77;10.47;;;3.60;99.90;;;;;;5022216;28;20296;-80
2023/04/26 05:21:23;;;;;;;10.80;10.50;;;3.60;99.90;;;;;;5021276;28;20280;-81
2023/04/26 05:23:50;;;;;;;11.00;10.70;;;3.70;99.90;;;;;;5021536;28;20283;-81
2023/04/26 05:26:19;;;;;;;10.60;10.30;;;3.80;99.90;;;;;;5021389;28;20234;-80
2023/04/26 05:28:47;;;;;;;10.63;10.33;;;3.80;99.90;;;;;;5019574;28;20243;-81
2023/04/26 05:31:15;;;;;;;10.53;10.23;;;3.90;99.90;;;;;;5036405;28;20222;-80
2023/04/26 05:33:42;;;;;;;11.00;10.70;;;4.00;99.90;;;;;;5049512;28;20231;-80
2023/04/26 05:36:10;;;;;;;10.60;10.30;;;4.10;99.90;;;;;;5042154;28;20331;-80
2023/04/26 05:38:38;;;;;;;10.70;10.40;;;4.10;99.90;;;;;;5041348;28;20241;-81
2023/04/26 05:41:05;;;;;;;11.30;11.00;;;4.20;99.90;;;;;;5040056;28;20227;-81
2023/04/26 05:43:34;;;;;;;10.90;10.60;;;4.20;99.90;;;;;;5039636;28;20242;-81
2023/04/26 05:46:02;;;;;;;10.53;10.23;;;4.20;99.90;;;;;;5019917;28;20263;-80
2023/04/26 05:48:29;;;;;;;10.70;10.40;;;4.20;99.90;;;;;;5019335;28;20239;-81
2023/04/26 05:50:57;;;;;;;10.40;10.10;;;4.30;99.90;;;;;;5019374;28;20260;-81
2023/04/26 05:53:25;;;;;;;10.70;10.40;;;4.50;99.90;;;;;;5032765;28;20434;-81
2023/04/26 05:55:52;;;;;;;10.40;10.10;;;4.60;99.90;;;;;;5057901;28;20266;-80
2023/04/26 05:58:20;;;;;;;9.73;9.43;;;4.70;99.90;;;;;;5040686;28;20311;-80
2023/04/26 06:00:48;;;;;;;10.20;9.90;;;4.80;99.90;;;;;;5038757;28;20232;-80
2023/04/26 06:03:16;;;;;;;10.20;9.90;;;4.90;99.90;;;;;;5045673;28;20293;-80
2023/04/26 06:05:43;;;;;;;10.10;9.80;;;4.80;99.90;;;;;;5047648;28;20317;-79
2023/04/26 06:08:11;;;;;;;10.17;9.87;;;4.90;99.90;;;;;;5037608;28;20259;-79
2023/04/26 06:10:38;;;;;;;10.30;10.00;;;5.00;99.90;;;;;;5055602;28;20326;-79
2023/04/26 06:13:06;;;;;;;10.20;9.90;;;5.10;99.90;;;;;;5045391;28;20315;-79
2023/04/26 06:15:34;;;;;;;10.30;10.00;;;5.10;99.90;;;;;;5040052;28;20251;-80
2023/04/26 06:18:03;;;;;;;10.20;9.90;;;5.20;99.90;;;;;;5046459;28;20240;-80
2023/04/26 06:20:31;;;;;;;10.40;10.10;;;5.40;99.90;;;;;;5047928;28;20275;-79
2023/04/26 06:22:59;;;;;;;10.17;9.87;;;5.40;99.90;;;;;;5028097;28;20239;-80
2023/04/26 06:25:26;;;;;;;10.30;10.00;;;5.50;99.90;;;;;;5050895;28;20236;-80
2023/04/26 06:27:54;;;;;;;10.10;9.80;;;5.60;99.90;;;;;;5040364;28;20442;-79
2023/04/26 06:30:21;;;;;;;10.10;9.80;;;5.80;99.90;;;;;;5040180;28;20238;-80
2023/04/26 06:32:49;;;;;;;10.20;9.90;;;5.90;99.90;;;;;;5039099;28;20315;-80
2023/04/26 06:35:18;;;;;;;10.10;9.80;;;6.10;99.90;;;;;;5040878;28;20326;-81
2023/04/26 06:37:45;;;;;;;10.10;9.80;;;6.20;99.90;;;;;;5041813;28;20287;-81
2023/04/26 06:40:14;;;;;;;10.47;10.17;;;6.20;99.90;;;;;;5046094;28;20330;-83
2023/04/26 06:42:42;;;;;;;10.20;9.90;;;6.20;99.90;;;;;;5049198;28;20245;-80
2023/04/26 06:45:11;;;;;;;10.53;10.23;;;6.30;99.90;;;;;;5039699;28;20234;-80
2023/04/26 06:47:39;;;;;;;10.80;10.50;;;6.40;99.90;;;;;;5042300;28;20736;-80
2023/04/26 06:50:08;;;;;;;10.27;9.97;;;6.50;99.90;;;;;;5058136;28;20324;-80
2023/04/26 06:52:37;;;;;;;10.33;10.03;;;6.50;99.90;;;;;;5057886;28;20298;-80
2023/04/26 06:55:06;;;;;;;10.13;9.83;;;6.60;99.90;;;;;;5044562;28;20352;-80
2023/04/26 06:57:33;;;;;;;10.13;9.83;;;6.70;99.90;;;;;;5055084;28;20265;-80
2023/04/26 07:00:01;;;;;;;10.10;9.80;;;6.80;99.90;;;;;;5031326;28;20235;-82
2023/04/26 07:02:29;;;;;;;10.53;10.23;;;6.80;99.90;;;;;;5044023;28;20244;-82
2023/04/26 07:04:56;;;;;;;10.50;10.20;;;6.80;99.90;;;;;;5042553;28;20322;-83
2023/04/26 07:07:24;;;;;;;10.40;10.10;;;6.90;99.90;;;;;;5055536;28;20223;-83
2023/04/26 07:09:54;;;;;;;9.97;9.67;;;7.00;99.90;;;;;;5062026;28;20238;-85
2023/04/26 07:12:21;;;;;;;9.87;9.57;;;7.10;99.90;;;;;;5056141;28;20231;-81
2023/04/26 07:14:49;;;;;;;9.53;9.23;;;7.20;99.90;;;;;;5053746;28;20281;-82
2023/04/26 07:17:16;;;;;;;10.00;9.70;;;7.20;99.90;;;;;;5062795;28;20223;-83
2023/04/26 07:19:44;;;;;;;10.00;9.70;;;7.30;99.90;;;;;;5045755;28;20231;-82
2023/04/26 07:22:11;;;;;;;10.20;9.90;;;7.50;99.90;;;;;;5045558;28;20278;-82
2023/04/26 07:24:38;;;;;;;10.20;9.90;;;7.40;99.90;;;;;;5059937;28;20273;-82
2023/04/26 07:27:07;;;;;;;10.27;9.97;;;7.40;99.90;;;;;;5056289;28;20234;-82
2023/04/26 07:29:35;;;;;;;10.20;9.90;;;7.50;99.90;;;;;;5055200;28;20295;-81
2023/04/26 07:32:02;;;;;;;9.93;9.63;;;7.60;99.90;;;;;;5046214;28;20299;-83
2023/04/26 07:34:30;;;;;;;10.10;9.80;;;7.70;99.90;;;;;;5030259;28;20299;-83
2023/04/26 07:36:57;;;;;;;9.80;9.50;;;7.70;99.90;;;;;;5029243;28;20296;-84
2023/04/26 07:39:25;;;;;;;10.00;9.70;;;7.80;99.90;;;;;;5048442;28;20257;-84
2023/04/26 07:41:53;;;;;;;10.07;9.77;;;7.90;99.90;;;;;;5030128;28;20232;-82
2023/04/26 07:44:22;;;;;;;10.20;9.90;;;8.10;99.90;;;;;;5029892;28;20232;-83
2023/04/26 07:46:51;;;;;;;10.27;9.97;;;8.20;99.90;;;;;;5027934;28;20220;-83
2023/04/26 07:49:19;;;;;;;10.63;10.33;;;8.30;99.90;;;;;;5027602;28;20348;-82
2023/04/26 07:51:47;;;;;;;10.30;10.00;;;8.60;99.90;;;;;;5028397;28;20231;-83
2023/04/26 07:54:17;;;;;;;9.90;9.60;;;8.70;99.90;;;;;;5028875;28;20260;-82
2023/04/26 07:56:45;;;;;;;10.17;9.87;;;8.90;99.90;;;;;;5028157;28;20271;-83
2023/04/26 07:59:12;;;;;;;10.10;9.80;;;8.80;99.90;;;;;;5026615;28;20260;-82
2023/04/26 08:01:45;;;;;;;10.10;9.80;;;8.90;99.90;;;;;;5028417;28;20231;-82
2023/04/26 08:04:13;;;;;;;10.03;9.73;;;8.90;99.90;;;;;;5029492;28;20235;-82
2023/04/26 08:06:43;;;;;;;9.97;9.67;;;9.00;99.90;;;;;;5027740;28;20658;-83
2023/04/26 08:09:11;;;;;;;10.10;9.80;;;9.00;99.90;;;;;;5028221;28;20228;-82
2023/04/26 08:11:40;;;;;;;9.70;9.40;;;9.10;99.90;;;;;;5029252;28;20250;-82
2023/04/26 08:14:08;;;;;;;9.87;9.57;;;9.20;99.90;;;;;;5028497;28;20239;-83
2023/04/26 08:16:35;;;;;;;9.73;9.43;;;9.10;99.90;;;;;;5027362;28;20275;-82
2023/04/26 08:19:04;;;;;;;10.00;9.70;;;9.20;99.90;;;;;;5027550;28;20220;-83
2023/04/26 08:21:31;;;;;;;9.90;9.60;;;9.30;99.90;;;;;;5027458;28;20235;-82
2023/04/26 08:23:59;;;;;;;10.13;9.83;;;9.30;99.90;;;;;;5025493;28;20323;-82
2023/04/26 08:26:27;;;;;;;10.20;9.90;;;9.30;99.90;;;;;;5025162;28;20299;-82
2023/04/26 08:28:57;;;;;;;10.20;9.90;;;9.40;99.90;;;;;;5022094;28;20220;-83
2023/04/26 08:31:26;;;;;;;10.23;9.93;;;9.40;99.90;;;;;;5022902;28;20232;-83
2023/04/26 08:33:53;;;;;;;10.40;10.10;;;9.40;99.90;;;;;;5022350;28;20236;-82
2023/04/26 08:36:22;;;;;;;10.17;9.87;;;9.40;99.90;;;;;;5022628;28;20242;-82
2023/04/26 08:38:50;;;;;;;10.30;10.00;;;9.30;99.90;;;;;;5021994;28;20234;-82
2023/04/26 08:41:23;;;;;;;10.40;10.10;;;9.10;99.90;;;;;;5023559;28;20228;-82
2023/04/26 08:43:51;;;;;;;10.57;10.27;;;8.90;99.90;;;;;;5024649;28;20236;-84
2023/04/26 08:46:20;;;;;;;10.43;10.13;;;9.10;99.90;;;;;;5023612;28;20278;-82
2023/04/26 08:49:00;;;;;;;10.30;10.00;;;9.50;99.90;;;;;;5020985;28;20220;-83
2023/04/26 08:51:30;;;;;;;10.10;9.80;;;9.90;99.90;;;;;;5021682;28;20303;-82
2023/04/26 08:54:00;;;;;;;9.83;9.53;;;9.90;99.90;;;;;;5022512;28;20232;-82
2023/04/26 08:56:28;;;;;;;10.30;10.00;;;9.50;99.90;;;;;;5019501;28;20328;-82
2023/04/26 08:58:56;;;;;;;10.40;10.10;;;9.20;99.90;;;;;;5019822;28;20288;-83
2023/04/26 09:01:26;;;;;;;10.30;10.00;;;9.30;99.90;;;;;;5021065;28;20240;-82
2023/04/26 09:03:55;;;;;;;10.60;10.30;;;9.50;99.90;;;;;;5020843;28;20220;-86
2023/04/26 09:06:23;;;;;;;10.63;10.33;;;9.90;99.90;;;;;;5022259;28;20232;-82
2023/04/26 09:08:53;;;;;;;10.57;10.27;;;10.00;99.90;;;;;;5021297;28;20242;-82
2023/04/26 09:11:21;;;;;;;10.47;10.17;;;10.40;99.90;;;;;;5021543;28;20235;-81
2023/04/26 09:13:48;;;;;;;10.17;9.87;;;10.60;99.90;;;;;;5020369;28;20234;-81
2023/04/26 09:16:16;;;;;;;10.10;9.80;;;10.70;99.90;;;;;;5017998;28;20250;-80
2023/04/26 09:18:53;;;;;;;10.17;9.87;;;10.70;99.90;;;;;;5022498;28;20655;-79
2023/04/26 09:21:21;;;;;;;10.40;10.10;;;10.40;99.90;;;;;;5021835;28;20231;-81
2023/04/26 09:24:03;;;;;;;10.13;9.83;;;10.10;99.90;;;;;;5024281;28;20364;-82
2023/04/26 09:26:31;;;;;;;9.77;9.47;;;9.90;99.90;;;;;;5023986;28;20228;-81
2023/04/26 09:29:15;;;;;;;10.03;9.73;;;9.90;99.90;;;;;;5025674;28;20232;-82
2023/04/26 09:31:45;;;;;;;10.10;9.80;;;10.10;99.90;;;;;;5020734;28;20228;-80
2023/04/26 09:34:14;;;;;;;10.30;10.00;;;10.10;99.90;;;;;;5020893;28;20228;-80
2023/04/26 09:36:52;;;;;;;10.20;9.90;;;10.50;99.90;;;;;;5020205;28;20330;-82
2023/04/26 09:39:36;;;;;;;10.30;10.00;;;10.80;99.90;;;;;;5020832;28;20236;-81
2023/04/26 09:42:04;;;;;;;10.13;9.83;;;11.30;99.90;;;;;;5020932;28;20236;-81
2023/04/26 09:44:33;;;;;;;10.77;10.47;;;11.60;99.90;;;;;;5021074;28;20282;-83
2023/04/26 09:47:07;;;;;;;10.50;10.20;;;11.70;99.90;;;;;;5022821;28;20240;-81
2023/04/26 09:49:47;;;;;;;10.50;10.20;;;11.90;99.90;;;;;;5031997;28;20203;-81
2023/04/26 09:52:15;;;;;;;10.50;10.20;;;11.70;99.90;;;;;;5031283;28;20246;-81
2023/04/26 09:54:47;;;;;;;10.60;10.30;;;11.40;99.90;;;;;;5028577;28;20236;-81
2023/04/26 09:57:17;;;;;;;10.60;10.30;;;11.00;99.90;;;;;;5024826;28;20224;-81
2023/04/26 09:59:46;;;;;;;10.43;10.13;;;10.60;99.90;;;;;;5021044;28;20263;-81
2023/04/26 10:02:19;;;;;;;9.93;9.63;;;10.50;99.90;;;;;;5026100;28;20256;-81
2023/04/26 10:04:49;;;;;;;10.07;9.77;;;10.70;99.90;;;;;;5025955;28;20272;-81
2023/04/26 10:07:19;;;;;;;10.10;9.80;;;11.20;99.90;;;;;;5022881;28;20739;-81
2023/04/26 10:09:50;;;;;;;10.07;9.77;;;11.40;99.90;;;;;;5025693;28;20259;-81
2023/04/26 10:12:19;;;;;;;9.87;9.57;;;11.40;99.90;;;;;;5026127;28;20238;-81
2023/04/26 10:14:48;;;;;;;10.00;9.70;;;11.70;99.90;;;;;;5024765;28;20255;-84
2023/04/26 10:17:16;;;;;;;10.00;9.70;;;11.50;99.90;;;;;;5022275;28;20326;-82
2023/04/26 10:19:45;;;;;;;9.97;9.67;;;11.50;99.90;;;;;;5023382;28;20216;-82
2023/04/26 10:22:20;;;;;;;10.10;9.80;;;11.10;99.90;;;;;;5039119;28;20236;-83
2023/04/26 10:24:50;;;;;;;10.40;10.10;;;10.90;99.90;;;;;;5024562;28;20231;-83
2023/04/26 10:27:50;;;;;;;10.50;10.20;;;11.00;99.90;;;;;;5024751;28;20235;-83
2023/04/26 10:57:14;;;;;;;10.40;10.10;;;11.70;99.90;;;;;;5080527;28;20230;-89
2023/04/26 11:00:43;;;;;;;10.43;10.13;;;11.90;99.90;;;;;;5077429;28;20233;-88
2023/04/26 11:07:52;;;;;;;10.50;10.20;;;13.00;99.90;;;;;;5080327;28;20271;-88
2023/04/26 11:10:49;;;;;;;10.27;9.97;;;13.30;99.90;;;;;;5081870;28;20238;-88
2023/04/26 11:13:53;;;;;;;10.30;10.00;;;13.20;99.90;;;;;;5082873;28;20224;-89
2023/04/26 11:16:25;;;;;;;10.17;9.87;;;12.60;99.90;;;;;;5083588;28;20222;-87
2023/04/26 11:19:01;;;;;;;10.40;10.10;;;12.50;99.90;;;;;;5091363;28;20213;-87
2023/04/26 11:21:40;;;;;;;10.30;10.00;;;12.00;99.90;;;;;;5096712;28;20226;-88
2023/04/26 11:24:20;;;;;;;10.40;10.10;;;12.00;99.90;;;;;;5103579;28;20245;-88
2023/04/26 11:27:22;;;;;;;10.50;10.20;;;12.30;99.90;;;;;;5081276;28;20215;-89
2023/04/26 11:30:03;;;;;;;9.90;9.60;;;12.40;99.90;;;;;;5080448;28;20271;-88
2023/04/26 11:32:46;;;;;;;10.00;9.70;;;12.50;99.90;;;;;;5075341;28;20235;-87
2023/04/26 11:35:16;;;;;;;10.50;10.20;;;12.90;99.90;;;;;;5070769;28;20231;-87
2023/04/26 11:38:16;;;;;;;10.17;9.87;;;13.20;99.90;;;;;;5069058;28;20254;-88
2023/04/26 11:43:39;;;;;;;10.57;10.27;;;12.00;99.90;;;;;;5060816;28;20250;-88
2023/04/26 11:49:13;;;;;;;10.63;10.33;;;12.00;99.90;;;;;;5060815;28;20227;-86
2023/04/26 11:52:05;;;;;;;10.57;10.27;;;11.90;99.90;;;;;;5062054;28;20230;-86
2023/04/26 11:54:38;;;;;;;10.00;9.70;;;12.10;99.90;;;;;;5074034;28;20243;-87
2023/04/26 11:57:43;;;;;;;10.50;10.20;;;12.20;99.90;;;;;;5080430;28;20221;-86
2023/04/26 12:00:29;;;;;;;10.30;10.00;;;12.40;99.90;;;;;;5071186;28;20255;-87
2023/04/26 12:07:20;;;;;;;10.67;10.37;;;12.50;99.90;;;;;;4996579;28;20228;-87
2023/04/26 12:10:19;;;;;;;10.30;10.00;;;12.90;99.90;;;;;;4997492;28;20217;-87
2023/04/26 12:13:08;;;;;;;10.60;10.30;;;13.20;99.90;;;;;;5007895;28;20321;-87
2023/04/26 12:19:41;;;;;;;10.30;10.00;;;13.60;99.90;;;;;;5020716;28;20255;-88
2023/04/26 12:23:15;;;;;;;10.30;10.00;;;14.20;99.90;;;;;;4943711;28;20227;-86
2023/04/26 12:26:21;;;;;;;10.67;10.37;;;14.40;99.90;;;;;;5081500;28;20233;-87
2023/04/26 12:42:05;;;;;;;10.15;9.85;;;15.60;99.90;;;;;;5080419;28;20280;-88
2023/04/26 13:12:10;;;;;;;10.43;10.13;;;15.20;99.90;;;;;;5074252;28;20234;-87
2023/04/26 13:14:49;;;;;;;10.43;10.13;;;15.40;99.90;;;;;;5097651;28;20233;-87
2023/04/26 13:17:19;;;;;;;10.50;10.20;;;14.70;99.90;;;;;;5088590;28;20262;-87
2023/04/26 13:29:03;;;;;;;10.18;9.88;;;15.20;99.90;;;;;;5066388;28;20226;-88
2023/04/26 15:19:58;;;;;;;10.13;9.82;;;17.10;99.90;;;;;;4847946;29;20245;-86
2023/04/26 15:37:07;;;;;;;10.60;10.30;;;18.00;99.90;;;;;;5016416;28;20237;-87
2023/04/26 19:21:36;;;;;;;8.60;8.40;;;10.30;99.90;;;;;;4958467;28;20380;-87
2023/04/26 19:24:07;;;;;;;8.83;8.63;;;10.30;99.90;;;;;;5003078;28;20224;-85
2023/04/26 19:26:41;;;;;;;8.83;8.63;;;10.10;99.90;;;;;;5066174;28;20226;-86
2023/04/26 19:29:16;;;;;;;8.67;8.47;;;9.90;99.90;;;;;;5070132;28;20255;-85
2023/04/26 19:31:52;;;;;;;8.57;8.37;;;9.80;99.90;;;;;;5070562;28;20286;-85
2023/04/26 19:34:25;;;;;;;8.80;8.60;;;9.80;99.90;;;;;;5073743;28;20253;-87
2023/04/26 19:40:19;;;;;;;9.17;8.90;;;9.80;99.90;;;;;;5334327;22;20240;-88
2023/04/26 19:42:48;;;;;;;8.80;8.60;;;9.90;99.90;;;;;;5041531;28;20218;-88
2023/04/26 19:48:40;;;;;;;8.83;8.63;;;9.80;99.90;;;;;;5026671;28;20243;-88
2023/04/26 19:51:22;;;;;;;8.40;8.20;;;9.80;99.90;;;;;;5041367;28;20243;-87
2023/04/26 19:53:59;;;;;;;8.80;8.60;;;9.80;99.90;;;;;;5041681;28;20239;-88
2023/04/26 19:57:11;;;;;;;8.60;8.40;;;9.70;99.90;;;;;;5041540;28;20252;-88
2023/04/26 19:59:39;;;;;;;9.30;9.00;;;9.70;99.90;;;;;;5001664;28;20224;-88
2023/04/26 20:02:38;;;;;;;9.30;9.00;;;9.60;99.90;;;;;;5021800;28;20323;-89
2023/04/26 20:05:36;;;;;;;9.53;9.23;;;9.50;99.90;;;;;;5020933;28;20224;-89
2023/04/26 20:08:05;;;;;;;9.30;9.00;;;9.50;99.90;;;;;;5025243;28;20268;-88
2023/04/26 20:10:41;;;;;;;9.40;9.10;;;9.40;99.90;;;;;;5035686;28;20291;-88
2023/04/26 20:16:11;;;;;;;9.60;9.30;;;9.30;99.90;;;;;;5036746;28;20210;-90
2023/04/26 20:21:19;;;;;;;8.90;8.70;;;9.10;99.90;;;;;;5059708;28;20245;-83
2023/04/26 20:23:46;;;;;;;9.00;8.80;;;9.10;99.90;;;;;;5055120;28;20323;-83
2023/04/26 20:26:14;;;;;;;8.60;8.40;;;9.00;99.90;;;;;;5055709;28;20249;-83
2023/04/26 20:28:44;;;;;;;9.37;9.07;;;9.00;99.90;;;;;;5049036;28;20241;-84
2023/04/26 20:31:11;;;;;;;8.80;8.60;;;8.90;99.90;;;;;;5041037;28;20239;-83
2023/04/26 20:33:39;;;;;;;9.23;8.93;;;8.80;99.90;;;;;;5032622;28;20236;-83